Wetterdaten: Woche 27.06.16 - 03.07.16 (KW26)
Datum Zeit Temperatur Luftfeuchte Luftdruck Niederschlag Windrichtung Sonnenschein Solar Wind
27.06.2016 00:00 14,0 C 93 % 1018,1 hPa 0,0 l/m NW 0,00 h 0 W/m 3,6 km/h (1 Bft)
27.06.2016 01:00 13,3 C 94 % 1017,9 hPa 2,4 l/m NW 0,00 h 0 W/m 2,8 km/h (1 Bft)
27.06.2016 02:00 12,2 C 97 % 1018,2 hPa 0,0 l/m N 0,00 h 0 W/m 0,0 km/h (0 Bft)
27.06.2016 03:00 11,9 C 98 % 1018,4 hPa 0,0 l/m N 0,00 h 0 W/m 0,0 km/h (0 Bft)
27.06.2016 04:00 11,4 C 98 % 1018,6 hPa 0,0 l/m N 0,00 h 0 W/m 0,0 km/h (0 Bft)
27.06.2016 05:00 11,2 C 98 % 1019,2 hPa 0,2 l/m N 0,00 h 10 W/m 0,0 km/h (0 Bft)
27.06.2016 06:00 11,1 C 99 % 1019,5 hPa 0,0 l/m N 0,00 h 49 W/m 0,0 km/h (0 Bft)
27.06.2016 07:00 12,4 C 98 % 1019,5 hPa 0,0 l/m N 0,75 h 196 W/m 0,0 km/h (0 Bft)
27.06.2016 08:00 14,4 C 85 % 1019,6 hPa 0,0 l/m N 1,00 h 380 W/m 0,9 km/h (0 Bft)
27.06.2016 09:00 15,9 C 79 % 1019,9 hPa 0,0 l/m W-NW 0,92 h 546 W/m 8,7 km/h (2 Bft)
27.06.2016 10:00 16,8 C 75 % 1019,8 hPa 0,0 l/m W-SW 0,58 h 469 W/m 11,2 km/h (2 Bft)
27.06.2016 11:00 17,3 C 70 % 1019,6 hPa 0,0 l/m W-NW 0,25 h 382 W/m 11,9 km/h (2 Bft)
27.06.2016 12:00 19,1 C 59 % 1019,2 hPa 0,0 l/m W-NW 0,92 h 793 W/m 14,2 km/h (3 Bft)
27.06.2016 13:00 19,3 C 57 % 1019,0 hPa 0,0 l/m W-NW 0,58 h 579 W/m 10,5 km/h (2 Bft)
27.06.2016 14:00 20,9 C 52 % 1018,6 hPa 0,0 l/m SW 1,00 h 978 W/m 14,6 km/h (3 Bft)
27.06.2016 15:00 20,8 C 52 % 1018,3 hPa 0,0 l/m W-NW 0,25 h 351 W/m 10,2 km/h (2 Bft)
27.06.2016 16:00 19,7 C 57 % 1018,3 hPa 0,0 l/m W 0,08 h 205 W/m 9,5 km/h (2 Bft)
27.06.2016 17:00 19,6 C 60 % 1018,1 hPa 0,0 l/m W 0,00 h 218 W/m 6,7 km/h (2 Bft)
27.06.2016 18:00 20,2 C 56 % 1017,8 hPa 0,0 l/m W-NW 0,58 h 308 W/m 8,7 km/h (2 Bft)
27.06.2016 19:00 19,4 C 58 % 1017,9 hPa 0,0 l/m W-NW 0,08 h 91 W/m 7,9 km/h (2 Bft)
27.06.2016 20:00 18,4 C 66 % 1018,1 hPa 0,0 l/m N 0,00 h 21 W/m 1,2 km/h (1 Bft)
27.06.2016 21:00 17,3 C 74 % 1018,4 hPa 0,0 l/m N 0,00 h 7 W/m 0,7 km/h (0 Bft)
27.06.2016 22:00 16,3 C 80 % 1018,7 hPa 0,0 l/m N 0,00 h 0 W/m 0,0 km/h (0 Bft)
27.06.2016 23:00 15,8 C 83 % 1018,6 hPa 0,0 l/m N 0,00 h 0 W/m 0,0 km/h (0 Bft)
28.06.2016 00:00 15,3 C 84 % 1018,7 hPa 0,0 l/m N 0,00 h 0 W/m 0,0 km/h (0 Bft)
28.06.2016 01:00 15,0 C 87 % 1018,6 hPa 0,0 l/m N 0,00 h 0 W/m 0,0 km/h (0 Bft)
28.06.2016 02:00 14,8 C 87 % 1018,4 hPa 0,0 l/m N 0,00 h 0 W/m 0,0 km/h (0 Bft)
28.06.2016 03:00 14,7 C 90 % 1018,0 hPa 0,0 l/m N 0,00 h 0 W/m 0,0 km/h (0 Bft)
28.06.2016 04:00 14,3 C 90 % 1017,7 hPa 0,0 l/m N 0,00 h 0 W/m 0,5 km/h (0 Bft)
28.06.2016 05:00 14,0 C 91 % 1017,4 hPa 0,0 l/m N 0,00 h 8 W/m 0,0 km/h (0 Bft)
28.06.2016 06:00 13,9 C 93 % 1017,5 hPa 0,0 l/m N 0,00 h 43 W/m 0,0 km/h (0 Bft)
28.06.2016 07:00 15,1 C 87 % 1017,6 hPa 0,0 l/m W-NW 0,08 h 103 W/m 3,5 km/h (1 Bft)
28.06.2016 08:00 16,4 C 84 % 1017,3 hPa 0,0 l/m W-NW 0,00 h 169 W/m 5,9 km/h (2 Bft)
28.06.2016 09:00 17,9 C 79 % 1017,0 hPa 0,0 l/m W 0,67 h 378 W/m 5,3 km/h (1 Bft)
28.06.2016 10:00 19,9 C 71 % 1016,7 hPa 0,0 l/m W 0,92 h 551 W/m 8,7 km/h (2 Bft)
28.06.2016 11:00 20,7 C 65 % 1016,4 hPa 0,0 l/m W-NW 0,67 h 601 W/m 10,2 km/h (2 Bft)
28.06.2016 12:00 22,1 C 62 % 1016,0 hPa 0,0 l/m W-SW 0,92 h 873 W/m 10,9 km/h (2 Bft)
28.06.2016 13:00 23,3 C 55 % 1015,3 hPa 0,0 l/m SW 0,92 h 922 W/m 12,6 km/h (3 Bft)
28.06.2016 14:00 23,5 C 51 % 1014,5 hPa 0,0 l/m W 0,67 h 617 W/m 8,1 km/h (2 Bft)
28.06.2016 15:00 24,6 C 50 % 1014,1 hPa 0,0 l/m S-SW 0,92 h 750 W/m 12,5 km/h (3 Bft)
28.06.2016 16:00 25,3 C 46 % 1013,4 hPa 0,0 l/m SW 1,00 h 755 W/m 11,3 km/h (2 Bft)
28.06.2016 17:00 25,3 C 47 % 1012,8 hPa 0,0 l/m SW 0,92 h 580 W/m 12,5 km/h (3 Bft)
28.06.2016 18:00 24,5 C 48 % 1012,6 hPa 0,0 l/m W-SW 1,00 h 436 W/m 11,5 km/h (2 Bft)
28.06.2016 19:00 23,5 C 51 % 1012,2 hPa 0,0 l/m W 1,00 h 256 W/m 7,8 km/h (2 Bft)
28.06.2016 20:00 21,3 C 62 % 1012,2 hPa 0,0 l/m W 0,08 h 29 W/m 3,6 km/h (1 Bft)
28.06.2016 21:00 19,4 C 71 % 1012,3 hPa 0,0 l/m W 0,00 h 7 W/m 3,5 km/h (1 Bft)
28.06.2016 22:00 19,0 C 73 % 1012,3 hPa 0,0 l/m W 0,00 h 0 W/m 4,1 km/h (1 Bft)
28.06.2016 23:00 19,1 C 70 % 1012,1 hPa 0,0 l/m W 0,00 h 0 W/m 7,2 km/h (2 Bft)
29.06.2016 00:00 18,2 C 74 % 1012,2 hPa 0,0 l/m W 0,00 h 0 W/m 2,4 km/h (1 Bft)
29.06.2016 01:00 15,8 C 87 % 1012,2 hPa 0,0 l/m N 0,00 h 0 W/m 0,0 km/h (0 Bft)
29.06.2016 02:00 15,6 C 89 % 1012,3 hPa 0,0 l/m N 0,00 h 0 W/m 0,0 km/h (0 Bft)
29.06.2016 03:00 16,4 C 87 % 1012,4 hPa 0,0 l/m W 0,00 h 0 W/m 5,5 km/h (1 Bft)
29.06.2016 04:00 16,4 C 87 % 1012,4 hPa 0,0 l/m W 0,00 h 0 W/m 4,3 km/h (1 Bft)
29.06.2016 05:00 16,6 C 85 % 1012,7 hPa 0,0 l/m W-SW 0,00 h 9 W/m 9,3 km/h (2 Bft)
29.06.2016 06:00 16,8 C 85 % 1012,8 hPa 0,0 l/m W-SW 0,08 h 45 W/m 9,8 km/h (2 Bft)
29.06.2016 07:00 17,3 C 84 % 1013,0 hPa 0,0 l/m W-SW 0,00 h 61 W/m 12,1 km/h (2 Bft)
29.06.2016 08:00 17,9 C 83 % 1013,1 hPa 0,0 l/m SW 0,00 h 122 W/m 11,8 km/h (2 Bft)
29.06.2016 09:00 18,8 C 82 % 1013,4 hPa 0,0 l/m SW 0,00 h 193 W/m 12,9 km/h (3 Bft)
29.06.2016 10:00 19,5 C 80 % 1013,3 hPa 0,0 l/m SW 0,08 h 250 W/m 15,2 km/h (3 Bft)
29.06.2016 11:00 20,6 C 75 % 1013,0 hPa 0,0 l/m W-SW 0,08 h 328 W/m 16,6 km/h (3 Bft)
29.06.2016 12:00 21,5 C 70 % 1012,7 hPa 0,0 l/m W-SW 0,00 h 304 W/m 16,5 km/h (3 Bft)
29.06.2016 13:00 23,0 C 66 % 1012,4 hPa 0,0 l/m W 0,67 h 748 W/m 13,4 km/h (3 Bft)
29.06.2016 14:00 23,6 C 63 % 1011,8 hPa 0,0 l/m W 0,50 h 573 W/m 12,2 km/h (2 Bft)
29.06.2016 15:00 24,4 C 60 % 1011,3 hPa 0,0 l/m W-NW 0,67 h 663 W/m 11,1 km/h (2 Bft)
29.06.2016 16:00 25,5 C 56 % 1010,7 hPa 0,0 l/m W-NW 1,00 h 688 W/m 14,7 km/h (3 Bft)
29.06.2016 17:00 25,3 C 56 % 1010,3 hPa 0,0 l/m W 0,83 h 486 W/m 13,4 km/h (3 Bft)
29.06.2016 18:00 25,4 C 55 % 1009,9 hPa 0,0 l/m SW 0,83 h 421 W/m 12,4 km/h (3 Bft)
29.06.2016 19:00 24,8 C 58 % 1009,9 hPa 0,0 l/m W-SW 1,00 h 277 W/m 9,1 km/h (2 Bft)
29.06.2016 20:00 23,5 C 65 % 1010,0 hPa 0,0 l/m W-SW 0,17 h 52 W/m 6,3 km/h (2 Bft)
29.06.2016 21:00 21,1 C 75 % 1010,2 hPa 0,0 l/m N 0,17 h 10 W/m 0,3 km/h (0 Bft)
29.06.2016 22:00 19,9 C 81 % 1010,6 hPa 0,0 l/m W-SW 0,00 h 0 W/m 0,0 km/h (0 Bft)
29.06.2016 23:00 19,6 C 83 % 1010,8 hPa 0,0 l/m N 0,00 h 0 W/m 1,3 km/h (1 Bft)
30.06.2016 00:00 19,0 C 85 % 1010,4 hPa 0,0 l/m W-SW 0,00 h 0 W/m 2,3 km/h (1 Bft)
30.06.2016 01:00 18,0 C 91 % 1010,6 hPa 0,0 l/m W-SW 0,00 h 0 W/m 2,9 km/h (1 Bft)
30.06.2016 02:00 17,3 C 93 % 1011,1 hPa 2,0 l/m W 0,00 h 0 W/m 7,4 km/h (2 Bft)
30.06.2016 03:00 16,7 C 96 % 1010,8 hPa 0,0 l/m N 0,00 h 0 W/m 0,8 km/h (0 Bft)
30.06.2016 04:00 16,2 C 97 % 1011,6 hPa 2,0 l/m W-SW 0,00 h 0 W/m 8,3 km/h (2 Bft)
30.06.2016 05:00 15,4 C 98 % 1012,3 hPa 2,0 l/m SW 0,00 h 0 W/m 10,9 km/h (2 Bft)
30.06.2016 06:00 15,0 C 98 % 1012,6 hPa 2,2 l/m SW 0,00 h 9 W/m 8,6 km/h (2 Bft)
30.06.2016 07:00 15,1 C 99 % 1012,8 hPa 1,0 l/m S-SW 0,00 h 19 W/m 9,4 km/h (2 Bft)
30.06.2016 08:00 15,8 C 99 % 1012,9 hPa 0,2 l/m S-SW 0,00 h 68 W/m 3,1 km/h (1 Bft)
30.06.2016 09:00 16,7 C 99 % 1013,2 hPa 0,0 l/m SW 0,00 h 115 W/m 5,2 km/h (1 Bft)
30.06.2016 10:00 17,1 C 97 % 1013,5 hPa 4,0 l/m SW 0,00 h 67 W/m 7,6 km/h (2 Bft)
30.06.2016 11:00 17,0 C 98 % 1013,8 hPa 1,8 l/m SW 0,00 h 122 W/m 9,7 km/h (2 Bft)
30.06.2016 12:00 18,2 C 96 % 1013,7 hPa 0,0 l/m SW 0,17 h 403 W/m 8,7 km/h (2 Bft)
30.06.2016 13:00 20,5 C 85 % 1013,1 hPa 0,0 l/m SW 0,92 h 904 W/m 12,2 km/h (2 Bft)
30.06.2016 14:00 21,9 C 76 % 1013,0 hPa 0,0 l/m W 0,75 h 745 W/m 12,0 km/h (2 Bft)
30.06.2016 15:00 22,8 C 71 % 1012,6 hPa 0,0 l/m W-SW 0,75 h 724 W/m 13,4 km/h (3 Bft)
30.06.2016 16:00 23,2 C 69 % 1012,4 hPa 0,0 l/m W-SW 0,67 h 651 W/m 13,8 km/h (3 Bft)
30.06.2016 17:00 22,7 C 70 % 1012,3 hPa 0,0 l/m W-NW 0,25 h 242 W/m 11,9 km/h (2 Bft)
30.06.2016 18:00 22,8 C 71 % 1012,3 hPa 0,0 l/m W 0,58 h 307 W/m 8,1 km/h (2 Bft)
30.06.2016 19:00 21,8 C 74 % 1012,5 hPa 0,0 l/m W 0,17 h 118 W/m 7,9 km/h (2 Bft)
30.06.2016 20:00 20,6 C 80 % 1013,0 hPa 0,0 l/m W-SW 0,00 h 30 W/m 8,5 km/h (2 Bft)
30.06.2016 21:00 19,6 C 83 % 1013,6 hPa 0,0 l/m W-SW 0,08 h 10 W/m 9,9 km/h (2 Bft)
30.06.2016 22:00 19,2 C 86 % 1014,4 hPa 0,0 l/m W-SW 0,00 h 0 W/m 12,5 km/h (3 Bft)
30.06.2016 23:00 18,5 C 89 % 1014,7 hPa 0,0 l/m SW 0,00 h 0 W/m 17,6 km/h (3 Bft)
01.07.2016 00:00 17,5 C 93 % 1014,6 hPa 0,0 l/m SW 0,00 h 0 W/m 12,0 km/h (2 Bft)
01.07.2016 01:00 17,0 C 95 % 1014,9 hPa 0,0 l/m W-SW 0,00 h 0 W/m 10,1 km/h (2 Bft)
01.07.2016 02:00 16,7 C 95 % 1014,9 hPa 0,0 l/m W-SW 0,00 h 0 W/m 5,5 km/h (1 Bft)
01.07.2016 03:00 15,9 C 96 % 1015,1 hPa 0,0 l/m N 0,00 h 0 W/m 0,0 km/h (0 Bft)
01.07.2016 04:00 15,4 C 97 % 1015,3 hPa 0,0 l/m W-SW 0,00 h 0 W/m 1,6 km/h (1 Bft)
01.07.2016 05:00 14,8 C 98 % 1015,1 hPa 0,0 l/m N 0,00 h 9 W/m 0,8 km/h (0 Bft)
01.07.2016 06:00 15,2 C 98 % 1015,3 hPa 0,0 l/m W-SW 0,00 h 58 W/m 3,3 km/h (1 Bft)
01.07.2016 07:00 16,3 C 96 % 1015,4 hPa 0,0 l/m SW 0,75 h 181 W/m 5,3 km/h (1 Bft)
01.07.2016 08:00 18,4 C 91 % 1015,7 hPa 0,0 l/m SW 1,00 h 366 W/m 4,1 km/h (1 Bft)
01.07.2016 09:00 20,0 C 84 % 1015,8 hPa 0,0 l/m SW 0,75 h 436 W/m 6,0 km/h (2 Bft)
01.07.2016 10:00 21,1 C 76 % 1015,6 hPa 0,0 l/m W-SW 0,92 h 661 W/m 7,5 km/h (2 Bft)
01.07.2016 11:00 22,7 C 70 % 1015,3 hPa 0,0 l/m W-SW 0,75 h 691 W/m 10,7 km/h (2 Bft)
01.07.2016 12:00 23,7 C 67 % 1015,1 hPa 0,0 l/m SW 0,67 h 669 W/m 11,0 km/h (2 Bft)
01.07.2016 13:00 23,9 C 66 % 1014,5 hPa 0,0 l/m W 0,50 h 594 W/m 10,7 km/h (2 Bft)
01.07.2016 14:00 25,4 C 58 % 1014,0 hPa 0,0 l/m W-SW 1,00 h 895 W/m 16,5 km/h (3 Bft)
01.07.2016 15:00 25,9 C 56 % 1013,6 hPa 0,0 l/m W 1,00 h 833 W/m 16,4 km/h (3 Bft)
01.07.2016 16:00 26,3 C 55 % 1013,3 hPa 0,0 l/m W-SW 1,00 h 735 W/m 16,6 km/h (3 Bft)
01.07.2016 17:00 26,2 C 54 % 1012,9 hPa 0,0 l/m W 1,00 h 585 W/m 17,3 km/h (3 Bft)
01.07.2016 18:00 25,8 C 56 % 1012,5 hPa 0,0 l/m W-SW 1,00 h 402 W/m 13,8 km/h (3 Bft)
01.07.2016 19:00 24,7 C 62 % 1012,5 hPa 0,0 l/m W-SW 0,67 h 194 W/m 10,5 km/h (2 Bft)
01.07.2016 20:00 23,0 C 69 % 1012,5 hPa 0,0 l/m W-SW 0,00 h 43 W/m 6,5 km/h (2 Bft)
01.07.2016 21:00 21,7 C 73 % 1012,7 hPa 0,0 l/m W-SW 0,00 h 9 W/m 7,1 km/h (2 Bft)
01.07.2016 22:00 19,7 C 82 % 1013,0 hPa 0,0 l/m N 0,00 h 0 W/m 0,0 km/h (0 Bft)
01.07.2016 23:00 18,2 C 88 % 1012,9 hPa 0,0 l/m N 0,00 h 0 W/m 0,0 km/h (0 Bft)
02.07.2016 00:00 17,4 C 92 % 1012,7 hPa 0,0 l/m N 0,00 h 0 W/m 0,0 km/h (0 Bft)
02.07.2016 01:00 17,5 C 92 % 1012,6 hPa 0,0 l/m N 0,00 h 0 W/m 1,3 km/h (1 Bft)
02.07.2016 02:00 17,0 C 94 % 1012,2 hPa 0,0 l/m N 0,00 h 0 W/m 0,9 km/h (0 Bft)
02.07.2016 03:00 16,1 C 96 % 1011,6 hPa 0,0 l/m N 0,00 h 0 W/m 0,0 km/h (0 Bft)
02.07.2016 04:00 15,8 C 97 % 1011,1 hPa 0,0 l/m N 0,00 h 0 W/m 0,0 km/h (0 Bft)
02.07.2016 05:00 15,9 C 97 % 1011,1 hPa 0,0 l/m N 0,00 h 11 W/m 0,0 km/h (0 Bft)
02.07.2016 06:00 16,6 C 96 % 1011,8 hPa 0,0 l/m W 0,00 h 15 W/m 3,9 km/h (1 Bft)
02.07.2016 07:00 17,8 C 92 % 1012,0 hPa 0,0 l/m W 0,00 h 37 W/m 3,6 km/h (1 Bft)
02.07.2016 08:00 17,5 C 95 % 1012,7 hPa 0,0 l/m SW 0,00 h 32 W/m 8,2 km/h (2 Bft)
02.07.2016 09:00 17,4 C 94 % 1013,0 hPa 0,6 l/m W-SW 0,00 h 67 W/m 10,2 km/h (2 Bft)
02.07.2016 10:00 17,3 C 96 % 1012,9 hPa 1,0 l/m W-SW 0,00 h 91 W/m 9,5 km/h (2 Bft)
02.07.2016 11:00 17,7 C 96 % 1013,1 hPa 0,2 l/m SW 0,00 h 140 W/m 11,8 km/h (2 Bft)
02.07.2016 12:00 17,3 C 95 % 1013,4 hPa 0,2 l/m W-SW 0,00 h 143 W/m 15,2 km/h (3 Bft)
02.07.2016 13:00 18,8 C 92 % 1013,1 hPa 0,0 l/m W-SW 0,00 h 315 W/m 14,5 km/h (3 Bft)
02.07.2016 14:00 19,7 C 83 % 1012,8 hPa 0,2 l/m W 0,17 h 267 W/m 16,5 km/h (3 Bft)
02.07.2016 15:00 17,9 C 87 % 1013,5 hPa 0,6 l/m W 0,00 h 60 W/m 14,9 km/h (3 Bft)
02.07.2016 16:00 15,8 C 94 % 1014,1 hPa 1,6 l/m W 0,00 h 59 W/m 15,0 km/h (3 Bft)
02.07.2016 17:00 15,2 C 96 % 1014,8 hPa 4,4 l/m W-SW 0,00 h 50 W/m 11,9 km/h (2 Bft)
02.07.2016 18:00 14,4 C 97 % 1015,4 hPa 1,0 l/m N-NW 0,00 h 37 W/m 4,8 km/h (1 Bft)
02.07.2016 19:00 14,2 C 97 % 1016,5 hPa 0,0 l/m NW 0,00 h 18 W/m 9,0 km/h (2 Bft)
02.07.2016 20:00 13,3 C 94 % 1017,3 hPa 0,0 l/m W-NW 0,00 h 19 W/m 7,2 km/h (2 Bft)
02.07.2016 21:00 12,9 C 94 % 1018,3 hPa 0,0 l/m N 0,08 h 17 W/m 0,1 km/h (0 Bft)
02.07.2016 22:00 12,2 C 95 % 1018,9 hPa 0,0 l/m N 0,00 h 0 W/m 0,4 km/h (0 Bft)
02.07.2016 23:00 12,3 C 94 % 1019,2 hPa 0,0 l/m N 0,00 h 0 W/m 0,3 km/h (0 Bft)
03.07.2016 00:00 12,2 C 95 % 1019,3 hPa 0,0 l/m W-NW 0,00 h 0 W/m 1,9 km/h (1 Bft)
03.07.2016 01:00 12,2 C 97 % 1019,5 hPa 0,0 l/m N 0,00 h 0 W/m 0,0 km/h (0 Bft)
03.07.2016 02:00 12,3 C 98 % 1019,4 hPa 0,0 l/m W-NW 0,00 h 0 W/m 0,4 km/h (0 Bft)
03.07.2016 03:00 12,4 C 98 % 1019,4 hPa 0,0 l/m W-NW 0,00 h 0 W/m 1,5 km/h (1 Bft)
03.07.2016 04:00 12,5 C 99 % 1019,4 hPa 0,0 l/m N 0,00 h 0 W/m 0,0 km/h (0 Bft)
03.07.2016 05:00 12,5 C 99 % 1019,5 hPa 0,0 l/m N 0,00 h 6 W/m 0,0 km/h (0 Bft)
03.07.2016 06:00 12,8 C 99 % 1019,7 hPa 0,0 l/m N 0,00 h 15 W/m 0,0 km/h (0 Bft)
03.07.2016 07:00 12,8 C 98 % 1020,0 hPa 0,0 l/m N 0,00 h 38 W/m 0,0 km/h (0 Bft)
03.07.2016 08:00 13,5 C 96 % 1020,2 hPa 0,0 l/m W-SW 0,08 h 151 W/m 6,6 km/h (2 Bft)
03.07.2016 09:00 15,0 C 87 % 1020,4 hPa 0,0 l/m W 0,08 h 287 W/m 7,1 km/h (2 Bft)
03.07.2016 10:00 16,1 C 78 % 1020,2 hPa 0,2 l/m W-SW 0,50 h 552 W/m 10,9 km/h (2 Bft)
03.07.2016 11:00 17,0 C 66 % 1020,0 hPa 0,0 l/m W-SW 0,08 h 294 W/m 13,7 km/h (3 Bft)
03.07.2016 12:00 16,3 C 69 % 1020,0 hPa 0,0 l/m W-NW 0,00 h 192 W/m 6,6 km/h (2 Bft)
03.07.2016 13:00 17,0 C 66 % 1019,7 hPa 0,0 l/m W-NW 0,00 h 261 W/m 9,5 km/h (2 Bft)
03.07.2016 14:00 17,5 C 64 % 1019,4 hPa 0,0 l/m W-SW 0,00 h 271 W/m 14,8 km/h (3 Bft)
03.07.2016 15:00 18,2 C 61 % 1019,2 hPa 0,0 l/m W 0,50 h 434 W/m 15,6 km/h (3 Bft)
03.07.2016 16:00 19,0 C 58 % 1018,9 hPa 0,0 l/m W 0,25 h 349 W/m 12,6 km/h (3 Bft)
03.07.2016 17:00 18,6 C 60 % 1019,0 hPa 0,0 l/m W-NW 0,00 h 191 W/m 9,7 km/h (2 Bft)
03.07.2016 18:00 18,6 C 61 % 1019,0 hPa 0,0 l/m W-NW 0,00 h 143 W/m 5,5 km/h (1 Bft)
03.07.2016 19:00 18,0 C 65 % 1019,2 hPa 0,0 l/m N-NW 0,00 h 78 W/m 5,8 km/h (1 Bft)
03.07.2016 20:00 17,0 C 68 % 1019,7 hPa 0,0 l/m N-NO 0,00 h 27 W/m 7,4 km/h (2 Bft)
03.07.2016 21:00 15,8 C 76 % 1020,2 hPa 0,0 l/m N 0,00 h 7 W/m 0,1 km/h (0 Bft)
03.07.2016 22:00 14,7 C 85 % 1020,5 hPa 0,0 l/m N 0,00 h 0 W/m 0,0 km/h (0 Bft)
03.07.2016 23:00 14,3 C 85 % 1020,7 hPa 0,0 l/m N 0,00 h 0 W/m 0,3 km/h (0 Bft)
Min-Datum _ 27.06.16 28.06.16 29.06.16 - - - - 27.06.16
_ Min-Zeit 06:10 16:00 19:05 - - - - 00:00
Minimum _ 11,0 C 44 % 1009,7 hPa - - - - 0,0 km/h (0 Bft)
Max-Datum _ 01.07.16 30.06.16 03.07.16 02.07.16 - 01.07.16 30.06.16 29.06.16
_ Max-Zeit 16:30 06:20 23:05 17:40 - 17:15 12:50 16:40
Maximum _ 26,5 C 100 % 1020,7 hPa 4,4 l/m - 0,10 h 1169 W/m 25,7 km/h
SW (4 Bft)
Durchschnitt _ 18,1 C 80 % 1015,2 hPa #27,8 l/m W-SW #39:55 h 292 W/m 7,0 km/h (2 Bft)